• Join FlightAware (Why Join?)
  • Login
  • US Flag 
03:49AM EDT


 

Airport Tracker/Info


-or-


 

Live Flight TrackerFlight Track Log ✈ DAL6067 ✈ 26-Apr-2013 ✈ KDTW - KCMH

Flight Track Log - Related Links

Times and Time Zones

All times are in EDT time to prevent confusion due to time zone crossing. See the DAL6067 flight status page for this flight to view local times or setup timezone preferences in your user account.

Time Position Orientation Groundspeed Altitude Reporting Facility
EDT Latitude Longitude Course Direction KTS MPH feet Rate Location/Type
12:21PM 42.2081 -83.3528 180° South 142 163 1,300  Level Cleveland Center
12:22PM 42.1806 -83.3628 195° South 168 193 2,400 1,980 Climbing Cleveland Center
12:23PM 42.1239 -83.3800 193° South 227 261 4,600 2,280 Climbing Cleveland Center
12:24PM 42.0675 -83.3803 180° South 253 291 6,700 2,400 Climbing Cleveland Center
12:25PM 41.8218 -83.2697 180° South  Level Estimated
12:25PM 42.0031 -83.3719 175° South 253 291 9,100  Level Cleveland Center
12:26PM 41.7241 -83.2489 180° South  Level Estimated
12:26PM 41.9303 -83.3658 176° South 254 292 11,300  Level Cleveland Center
12:27PM 41.6264 -83.2282 180° South  Level Estimated
12:27PM 41.8408 -83.3592 177° South 277 319 13,000  Level Cleveland Center
12:28PM 41.7494 -83.3497 176° South 312 359 14,800 1,500 Climbing Cleveland Center
12:29PM 41.6536 -83.3400 176° South 325 374 16,000 600 Climbing Cleveland Center
12:30PM 41.5539 -83.3331 177° South 351 404 16,000  Level Cleveland Center
12:31PM 41.4581 -83.3233 176° South 351 404 16,000  Level Cleveland Center
12:32PM 41.3581 -83.3164 177° South 351 404 16,000  Level Cleveland Center
12:33PM 41.2606 -83.3067 176° South 356 410 16,000  Level Cleveland Center
12:34PM 41.1583 -83.2997 177° South 361 415 16,000 -180 Level Cleveland Center
12:35PM 41.0586 -83.2875 175° South 367 422 15,700 -780 Descending Cleveland Center
12:36PM 40.9586 -83.2806 177° South 358 412 14,500 -1,380 Descending Cleveland Center
12:37PM 40.8672 -83.2739 177° South 347 399 13,000 -1,500 Descending Cleveland Center
12:38PM 40.7736 -83.2647 176° South 341 392 11,500 -1,500 Descending Cleveland Center
12:39PM 40.6819 -83.2556 176° South 336 387 10,000 -660 Descending Cleveland Center
12:40PM 40.5608 -83.2486 178° South 331 381 10,000  Level Indianapolis Center
12:41PM 40.5133 -83.2458 177° South 328 377 10,000  Level Indianapolis Center
12:41PM 40.4675 -83.2411 176° South 330 380 10,000  Level Indianapolis Center
12:42PM 40.4072 -83.2358 176° South 333 383 10,000 -120 Level Indianapolis Center
12:42PM 40.3753 -83.2336 177° South 331 381 9,900 -1,200 Descending Indianapolis Center
12:43PM 40.3239 -83.2314 178° South 279 321 8,800 -2,160 Descending Indianapolis Center
12:43PM 40.2811 -83.2278 176° South 300 345 7,700 -1,860 Descending Indianapolis Center
12:44PM 40.2528 -83.2283 181° South 289 333 7,100 -1,560 Descending Indianapolis Center
12:44PM 40.2019 -83.2233 176° South 287 330 6,100 -1,140 Descending Indianapolis Center
12:45PM 40.1736 -83.2217 177° South 270 311 6,000 -480 Descending Indianapolis Center
12:46PM 40.1083 -83.2003 166° South 234 269 5,500 -900 Descending Indianapolis Center
12:47PM 40.0822 -83.1581 129° Southeast 245 282 4,500 -1,680 Descending Indianapolis Center
12:47PM 40.0689 -83.1331 125° Southeast 224 258 3,800 -1,500 Descending Indianapolis Center
12:48PM 40.0447 -83.0933 128° Southeast 230 265 3,000 -840 Descending Indianapolis Center
12:48PM 40.0311 -83.0742 133° Southeast 205 236 3,000  Level Indianapolis Center